Time;durP1;ratioP1;P1;durP2;ratioP2;P2;SDS_P1;SDS_P2;PMS_P1;PMS_P2;Temp;Humidity;BMP_temperature;BMP_pressure;BME280_temperature;BME280_humidity;BME280_pressure;Samples;Min_cycle;Max_cycle;Signal;HPM_P1;HPM_P2
2023/06/26 00:00:39;;;;;;;8.55;7.47;;;;;;;23.19;62.57;101117.31;5049028;28;20074;-83
2023/06/26 00:03:04;;;;;;;9.27;7.78;;;;;;;23.18;62.42;101110.28;5048370;28;20029;-83
2023/06/26 00:05:30;;;;;;;8.00;7.18;;;;;;;23.19;62.39;101117.31;5048959;28;20084;-83
2023/06/26 00:08:00;;;;;;;10.38;7.53;;;;;;;23.19;62.29;101109.34;5042655;28;20017;-83
2023/06/26 00:10:25;;;;;;;7.95;7.15;;;;;;;23.19;62.21;101108.47;5031703;28;20025;-83
2023/06/26 00:12:50;;;;;;;8.80;7.47;;;;;;;23.18;62.23;101105.00;5050033;28;20029;-83
2023/06/26 00:15:16;;;;;;;9.70;7.57;;;;;;;23.17;62.23;101113.91;5049149;28;20108;-83
2023/06/26 00:17:41;;;;;;;8.98;7.00;;;;;;;23.17;62.01;101113.91;5050846;28;20029;-82
2023/06/26 00:20:08;;;;;;;9.00;7.30;;;;;;;23.17;61.28;101119.22;5051571;28;20107;-83
2023/06/26 00:22:33;;;;;;;8.57;7.05;;;;;;;23.18;60.91;101122.69;5052207;28;20100;-82
2023/06/26 00:24:58;;;;;;;8.15;6.53;;;;;;;23.18;60.97;101105.00;5049592;28;20175;-82
2023/06/26 00:27:23;;;;;;;8.82;6.70;;;;;;;23.19;60.65;101108.47;5052106;28;20059;-83
2023/06/26 00:29:49;;;;;;;7.70;6.90;;;;;;;23.19;60.89;101106.69;5051796;28;20032;-82
2023/06/26 00:32:14;;;;;;;7.47;6.53;;;;;;;23.20;60.16;101107.50;5051831;28;20044;-82
2023/06/26 00:34:39;;;;;;;7.40;5.97;;;;;;;23.19;60.12;101104.03;5051046;28;20519;-83
2023/06/26 00:37:05;;;;;;;7.13;6.32;;;;;;;23.18;59.90;101105.00;5053932;28;20444;-82
2023/06/26 00:39:30;;;;;;;6.88;5.93;;;;;;;23.17;59.58;101100.63;5053785;28;20080;-82
2023/06/26 00:41:55;;;;;;;6.43;5.68;;;;;;;23.17;60.51;101102.44;5051994;28;20075;-82
2023/06/26 00:44:21;;;;;;;6.78;6.07;;;;;;;23.16;59.65;101101.59;5052991;28;20013;-82
2023/06/26 00:46:46;;;;;;;8.60;6.05;;;;;;;23.13;59.52;101107.13;5053888;28;20104;-83
2023/06/26 00:49:12;;;;;;;6.35;5.72;;;;;;;23.14;59.46;101108.00;5036522;28;20032;-82
2023/06/26 00:51:38;;;;;;;8.05;6.03;;;;;;;23.12;59.46;101104.59;5053205;28;20035;-82
2023/06/26 00:54:03;;;;;;;6.85;5.82;;;;;;;23.12;59.55;101104.59;5052448;28;20104;-83
2023/06/26 00:56:31;;;;;;;6.63;5.78;;;;;;;23.10;59.26;101107.34;5054182;28;20028;-82
2023/06/26 00:58:56;;;;;;;7.38;6.10;;;;;;;23.10;59.26;101112.66;5049035;28;20032;-82
2023/06/26 01:01:25;;;;;;;8.40;6.07;;;;;;;23.09;59.25;101110.97;5054097;28;20392;-83
2023/06/26 01:03:52;;;;;;;7.70;5.85;;;;;;;23.08;59.13;101113.75;5052740;28;20469;-82
2023/06/26 01:06:21;;;;;;;8.73;5.82;;;;;;;23.06;59.02;101105.06;5053848;28;20033;-83
2023/06/26 01:08:47;;;;;;;8.82;6.03;;;;;;;23.05;59.18;101109.53;5049509;28;20047;-82
2023/06/26 01:11:13;;;;;;;7.63;5.90;;;;;;;23.04;59.24;101107.84;5050049;28;20107;-82
2023/06/26 01:13:40;;;;;;;7.25;6.18;;;;;;;23.00;59.13;101104.53;5048150;28;20029;-82
2023/06/26 01:16:05;;;;;;;7.80;6.03;;;;;;;22.99;58.83;101110.81;5053157;28;20479;-83
2023/06/26 01:18:32;;;;;;;7.70;5.90;;;;;;;22.98;58.58;101113.59;5048166;28;20033;-82
2023/06/26 01:21:01;;;;;;;6.95;6.05;;;;;;;22.96;58.77;101121.66;5031852;28;20116;-82
2023/06/26 01:23:36;;;;;;;6.80;5.82;;;;;;;22.94;58.79;101122.72;5051195;28;20021;-82
2023/06/26 01:26:11;;;;;;;8.00;6.50;;;;;;;22.92;59.01;101124.63;5047563;28;20029;-82
2023/06/26 01:28:42;;;;;;;8.18;6.10;;;;;;;22.87;59.03;101131.16;5050696;28;20017;-82
2023/06/26 01:31:08;;;;;;;6.80;6.10;;;;;;;22.85;59.83;101133.06;5044426;28;20032;-82
2023/06/26 01:33:34;;;;;;;6.80;5.95;;;;;;;22.82;59.87;101129.78;5043466;28;20025;-82
2023/06/26 01:36:00;;;;;;;9.57;5.95;;;;;;;22.80;59.85;101129.06;5046415;28;20035;-82
2023/06/26 01:38:26;;;;;;;8.93;6.70;;;;;;;22.78;59.99;101133.63;5047615;28;20091;-82
2023/06/26 01:40:52;;;;;;;9.13;6.43;;;;;;;22.75;60.09;101140.00;5048182;28;20024;-82
2023/06/26 01:43:27;;;;;;;8.02;6.32;;;;;;;22.71;60.01;101143.84;5050205;28;20367;-84
2023/06/26 01:45:59;;;;;;;9.05;6.15;;;;;;;22.68;59.99;101146.72;5050053;28;20033;-82
2023/06/26 01:48:32;;;;;;;7.40;5.65;;;;;;;22.63;59.22;101147.03;5049531;28;20029;-83
2023/06/26 01:50:59;;;;;;;6.22;5.63;;;;;;;22.57;59.40;101150.13;5049436;28;20037;-82
2023/06/26 01:53:31;;;;;;;7.30;5.43;;;;;;;22.54;59.58;101153.88;5048612;28;20029;-82
2023/06/26 01:56:07;;;;;;;6.63;5.25;;;;;;;22.49;59.62;101158.63;5030853;28;20348;-82
2023/06/26 01:58:35;;;;;;;6.88;4.85;;;;;;;22.43;59.96;101159.06;5046805;28;20083;-82
2023/06/26 02:01:00;;;;;;;6.35;5.15;;;;;;;22.36;60.28;101165.75;5044660;28;20020;-83
2023/06/26 02:03:26;;;;;;;7.45;5.22;;;;;;;22.32;60.18;101172.22;5047310;28;20480;-82
2023/06/26 02:05:51;;;;;;;6.68;4.93;;;;;;;22.29;60.02;101176.78;5050764;28;20060;-82
2023/06/26 02:08:17;;;;;;;6.63;4.72;;;;;;;22.25;60.47;101169.97;5046645;28;20038;-82
2023/06/26 02:10:42;;;;;;;6.72;5.18;;;;;;;22.20;60.43;101185.38;5048728;28;20035;-82
2023/06/26 02:13:07;;;;;;;5.50;4.43;;;;;;;22.14;60.56;101183.16;5048278;28;20476;-82
2023/06/26 02:15:33;;;;;;;7.68;4.65;;;;;;;22.09;60.62;101187.91;5048557;28;20029;-82
2023/06/26 02:17:58;;;;;;;6.95;4.70;;;;;;;22.04;60.98;101174.13;5051423;28;20128;-82
2023/06/26 02:20:23;;;;;;;6.28;3.80;;;;;;;22.04;60.69;101176.78;5032459;28;20422;-82
2023/06/26 02:22:48;;;;;;;5.97;4.43;;;;;;;22.01;60.75;101179.66;5047751;28;20033;-82
2023/06/26 02:25:14;;;;;;;7.20;4.60;;;;;;;21.98;60.76;101178.91;5045644;28;20029;-82
2023/06/26 02:27:39;;;;;;;6.25;4.40;;;;;;;21.96;60.67;101170.22;5048425;28;20064;-82
2023/06/26 02:30:05;;;;;;;6.55;4.13;;;;;;;21.95;60.77;101168.53;5051651;28;20025;-82
2023/06/26 02:32:30;;;;;;;5.15;3.80;;;;;;;21.93;60.61;101169.59;5046523;28;20032;-82
2023/06/26 02:34:56;;;;;;;6.18;3.60;;;;;;;21.91;60.75;101180.28;5050543;28;20049;-82
2023/06/26 02:37:21;;;;;;;5.90;4.20;;;;;;;21.89;60.78;101173.41;5049103;28;20028;-82
2023/06/26 02:39:46;;;;;;;5.88;4.10;;;;;;;21.87;60.75;101181.44;5051717;28;20029;-82
2023/06/26 02:42:12;;;;;;;5.32;3.97;;;;;;;21.85;60.72;101180.72;5050137;28;20384;-82
2023/06/26 02:44:37;;;;;;;5.55;3.95;;;;;;;21.82;61.17;101173.81;5051768;28;20373;-82
2023/06/26 02:47:03;;;;;;;6.13;3.92;;;;;;;21.79;61.25;101184.59;5051055;28;20688;-82
2023/06/26 02:49:28;;;;;;;7.07;4.28;;;;;;;21.77;61.41;101190.97;5052126;28;20028;-82
2023/06/26 02:51:53;;;;;;;8.05;3.90;;;;;;;21.74;61.62;101189.38;5047590;28;20099;-82
2023/06/26 02:54:18;;;;;;;7.43;4.13;;;;;;;21.72;61.20;101187.78;5050255;28;20028;-82
2023/06/26 02:56:44;;;;;;;7.20;3.90;;;;;;;21.69;61.36;101202.06;5049902;28;20040;-82
2023/06/26 02:59:09;;;;;;;7.38;3.72;;;;;;;21.65;61.55;101204.09;5048719;28;20484;-82
2023/06/26 03:01:34;;;;;;;8.93;3.45;;;;;;;21.62;61.54;101201.63;5048404;28;20029;-82
2023/06/26 03:04:00;;;;;;;4.97;3.22;;;;;;;21.58;61.82;101205.41;5049379;28;20392;-82
2023/06/26 03:06:26;;;;;;;6.20;3.53;;;;;;;21.53;61.43;101210.16;5047723;28;20037;-82
2023/06/26 03:08:51;;;;;;;11.48;3.90;;;;;;;21.49;62.09;101213.97;5047303;28;20037;-82
2023/06/26 03:11:17;;;;;;;8.48;3.55;;;;;;;21.46;61.74;101215.00;5050522;28;20040;-82
2023/06/26 03:13:42;;;;;;;9.50;3.42;;;;;;;21.46;61.81;101211.53;5048741;28;20141;-82
2023/06/26 03:16:07;;;;;;;8.38;3.97;;;;;;;21.43;61.96;101217.00;5050028;28;20107;-82
2023/06/26 03:18:33;;;;;;;6.50;3.72;;;;;;;21.40;62.28;101211.91;5049945;28;20028;-82
2023/06/26 03:20:59;;;;;;;8.90;3.80;;;;;;;21.36;62.23;101214.75;5049909;28;20048;-82
2023/06/26 03:23:25;;;;;;;5.53;3.85;;;;;;;21.35;62.48;101222.81;5046006;28;20056;-82
2023/06/26 03:25:50;;;;;;;6.45;3.55;;;;;;;21.31;62.69;101216.00;5050909;28;20429;-82
2023/06/26 03:28:15;;;;;;;5.55;3.38;;;;;;;21.26;62.51;101218.97;5045608;28;20030;-82
2023/06/26 03:30:41;;;;;;;6.88;4.00;;;;;;;21.20;62.63;101214.06;5046405;28;20051;-82
2023/06/26 03:33:06;;;;;;;7.20;3.72;;;;;;;21.18;62.30;101208.06;5043907;28;20384;-82
2023/06/26 03:35:32;;;;;;;5.43;3.58;;;;;;;21.14;62.52;101220.59;5047400;28;20025;-82
2023/06/26 03:37:58;;;;;;;7.30;3.90;;;;;;;21.08;62.85;101219.22;5046093;28;20017;-82
2023/06/26 03:40:23;;;;;;;6.88;3.55;;;;;;;21.04;63.05;101212.41;5050637;28;20098;-82
2023/06/26 03:42:48;;;;;;;5.80;3.58;;;;;;;21.02;62.71;101222.25;5047048;28;20472;-82
2023/06/26 03:45:14;;;;;;;6.43;3.40;;;;;;;20.98;62.90;101215.47;5048798;28;20035;-82
2023/06/26 03:47:39;;;;;;;6.28;3.08;;;;;;;20.95;63.08;101215.66;5054148;28;20036;-83
2023/06/26 03:50:05;;;;;;;5.97;3.10;;;;;;;20.92;63.23;101219.31;5048929;28;20021;-82
2023/06/26 03:52:30;;;;;;;6.53;3.20;;;;;;;20.90;63.36;101220.38;5049794;28;20032;-83
2023/06/26 03:54:57;;;;;;;7.18;3.25;;;;;;;20.85;63.26;101215.41;5048775;28;20028;-83
2023/06/26 03:57:22;;;;;;;6.65;3.13;;;;;;;20.83;63.29;101221.75;5048394;28;20096;-82
2023/06/26 03:59:47;;;;;;;6.05;3.17;;;;;;;20.80;63.51;101216.63;5048063;28;20167;-82
2023/06/26 04:02:13;;;;;;;7.30;3.08;;;;;;;20.76;63.68;101222.13;5046493;28;20032;-83
2023/06/26 04:04:38;;;;;;;11.35;3.40;;;;;;;20.74;63.99;101228.41;5049103;28;20064;-83
2023/06/26 04:07:04;;;;;;;6.90;3.30;;;;;;;20.70;64.19;101233.03;5048583;28;20017;-82
2023/06/26 04:09:29;;;;;;;7.60;3.20;;;;;;;20.67;64.38;101227.09;5048653;28;20025;-82
2023/06/26 04:11:54;;;;;;;7.03;3.08;;;;;;;20.62;64.69;101237.97;5048736;28;20029;-82
2023/06/26 04:14:20;;;;;;;6.95;3.35;;;;;;;20.60;64.70;101245.13;5046093;28;20032;-82
2023/06/26 04:16:45;;;;;;;5.97;3.28;;;;;;;20.57;65.46;101251.47;5050017;28;20439;-82
2023/06/26 04:19:10;;;;;;;5.22;3.22;;;;;;;20.56;65.56;101251.53;5032487;28;20035;-82
2023/06/26 04:21:36;;;;;;;7.72;3.40;;;;;;;20.54;66.08;101261.34;5046713;28;20439;-82
2023/06/26 04:24:01;;;;;;;7.95;3.38;;;;;;;20.51;66.79;101258.91;5048601;28;20040;-82
2023/06/26 04:26:27;;;;;;;7.78;3.55;;;;;;;20.49;66.96;101266.09;5049604;28;20025;-82
2023/06/26 04:28:53;;;;;;;7.30;3.50;;;;;;;20.46;67.07;101267.13;5050361;28;20064;-82
2023/06/26 04:31:18;;;;;;;7.40;3.30;;;;;;;20.47;66.81;101274.97;5045286;28;20056;-83
2023/06/26 04:33:43;;;;;;;8.38;3.25;;;;;;;20.45;67.81;101273.34;5045641;28;20070;-82
2023/06/26 04:36:09;;;;;;;7.28;3.22;;;;;;;20.44;67.97;101264.56;5030671;28;20036;-82
2023/06/26 04:38:34;;;;;;;8.50;3.33;;;;;;;20.44;68.30;101275.16;5047895;28;20032;-83
2023/06/26 04:41:01;;;;;;;9.48;3.60;;;;;;;20.44;68.52;101271.63;5046687;28;20028;-83
2023/06/26 04:43:26;;;;;;;8.18;3.60;;;;;;;20.42;68.89;101266.47;5048757;28;20056;-83
2023/06/26 04:45:51;;;;;;;10.38;4.05;;;;;;;20.44;69.28;101276.94;5047370;28;20048;-82
2023/06/26 04:48:17;;;;;;;9.68;3.65;;;;;;;20.45;69.41;101279.50;5049356;28;20056;-82
2023/06/26 04:50:42;;;;;;;7.07;3.47;;;;;;;20.48;69.53;101291.66;5046054;28;20043;-82
2023/06/26 04:53:07;;;;;;;6.47;3.35;;;;;;;20.49;69.38;101287.25;5050204;28;20068;-82
2023/06/26 04:55:33;;;;;;;9.35;3.80;;;;;;;20.49;69.98;101284.59;5047714;28;20053;-82
2023/06/26 04:57:58;;;;;;;9.90;3.88;;;;;;;20.51;69.88;101296.78;5048698;28;20111;-82
2023/06/26 05:00:24;;;;;;;8.85;3.67;;;;;;;20.53;70.12;101300.16;5045497;28;20692;-82
2023/06/26 05:03:00;;;;;;;9.15;3.90;;;;;;;20.56;70.16;101299.13;5049474;28;20049;-82
2023/06/26 05:05:27;;;;;;;7.05;3.40;;;;;;;20.57;69.94;101300.81;5049943;28;20388;-82
2023/06/26 05:07:54;;;;;;;11.10;3.83;;;;;;;20.56;70.18;101304.41;5049489;28;20041;-81
2023/06/26 05:10:19;;;;;;;8.75;3.70;;;;;;;20.56;70.60;101300.00;5046558;28;20025;-82
2023/06/26 05:12:44;;;;;;;9.85;3.67;;;;;;;20.57;70.57;101311.41;5043840;28;20487;-83
2023/06/26 05:15:10;;;;;;;9.70;3.72;;;;;;;20.56;70.24;101309.69;5047065;28;20078;-82
2023/06/26 05:17:35;;;;;;;7.53;3.80;;;;;;;20.57;70.60;101311.41;5043515;28;20025;-82
2023/06/26 05:20:00;;;;;;;11.23;3.80;;;;;;;20.58;70.82;101313.94;5044299;28;20044;-82
2023/06/26 05:22:26;;;;;;;11.38;4.05;;;;;;;20.59;70.92;101314.81;5030603;28;20468;-83
2023/06/26 05:24:54;;;;;;;7.45;3.45;;;;;;;20.62;70.78;101325.19;5046730;28;20028;-83
2023/06/26 05:27:21;;;;;;;10.05;3.92;;;;;;;20.63;70.79;101316.31;5046260;28;20090;-83
2023/06/26 05:29:47;;;;;;;8.85;3.60;;;;;;;20.67;70.92;101317.81;5046671;28;20841;-82
2023/06/26 05:32:17;;;;;;;10.07;3.63;;;;;;;20.70;70.82;101315.00;5048827;28;20099;-82
2023/06/26 05:34:46;;;;;;;7.65;3.50;;;;;;;20.71;70.60;101324.63;5048990;28;20056;-83
2023/06/26 05:37:18;;;;;;;13.95;4.07;;;;;;;20.71;70.31;101329.91;5043355;28;20031;-84
2023/06/26 05:39:44;;;;;;;9.60;3.17;;;;;;;20.71;70.29;101329.91;5046027;28;20090;-83
2023/06/26 05:42:10;;;;;;;7.88;3.58;;;;;;;20.75;70.46;101330.59;5048065;28;20387;-82
2023/06/26 05:44:35;;;;;;;9.52;3.70;;;;;;;20.80;70.13;101341.75;5045577;28;20021;-82
2023/06/26 05:47:00;;;;;;;8.00;3.38;;;;;;;20.83;69.70;101346.88;5048046;28;20027;-82
2023/06/26 05:49:26;;;;;;;8.85;3.30;;;;;;;20.82;69.16;101349.59;5046181;28;20029;-82
2023/06/26 05:51:51;;;;;;;7.28;3.22;;;;;;;20.76;69.57;101341.09;5045454;28;20033;-83
2023/06/26 05:54:17;;;;;;;8.38;3.60;;;;;;;20.73;69.61;101349.19;5045021;28;20716;-84
2023/06/26 05:56:42;;;;;;;10.27;3.45;;;;;;;20.71;69.25;101355.50;5028000;28;20025;-82
2023/06/26 05:59:08;;;;;;;12.35;3.42;;;;;;;20.68;70.07;101353.06;5046258;28;20025;-83
2023/06/26 06:01:35;;;;;;;10.02;3.20;;;;;;;20.68;70.27;101356.53;5045044;28;20029;-83
2023/06/26 06:04:00;;;;;;;11.35;3.63;;;;;;;20.70;70.01;101359.94;5029652;28;21664;-83
2023/06/26 06:06:25;;;;;;;10.25;3.63;;;;;;;20.71;70.72;101364.28;5045278;28;20044;-81
2023/06/26 06:08:50;;;;;;;7.75;2.65;;;;;;;20.72;68.62;101362.50;5045025;28;20033;-82
2023/06/26 06:11:17;;;;;;;8.60;2.65;;;;;;;20.70;68.49;101369.69;5045488;28;20057;-82
2023/06/26 06:13:42;;;;;;;10.00;2.88;;;;;;;20.66;67.39;101374.31;5045226;28;20389;-83
2023/06/26 06:16:07;;;;;;;10.60;3.03;;;;;;;20.58;68.36;101376.53;5048370;28;20028;-83
2023/06/26 06:18:33;;;;;;;8.50;2.78;;;;;;;20.62;67.06;101383.34;5022497;28;20017;-83
2023/06/26 06:20:58;;;;;;;7.38;2.45;;;;;;;20.66;66.45;101390.16;5046764;28;20037;-83
2023/06/26 06:23:24;;;;;;;9.95;2.65;;;;;;;20.66;66.67;101395.47;5045658;28;20043;-83
2023/06/26 06:25:49;;;;;;;10.27;2.60;;;;;;;20.67;67.08;101397.13;5044259;28;20029;-84
2023/06/26 06:28:16;;;;;;;7.53;2.55;;;;;;;20.65;66.99;101403.47;5040973;28;20027;-83
2023/06/26 06:30:41;;;;;;;7.15;2.60;;;;;;;20.62;66.79;101409.78;5027484;28;20025;-83
2023/06/26 06:33:06;;;;;;;9.65;2.92;;;;;;;20.54;66.45;101412.88;5045849;28;20407;-83
2023/06/26 06:35:32;;;;;;;9.10;2.80;;;;;;;20.53;67.55;101410.31;5043633;28;20028;-83
2023/06/26 06:37:57;;;;;;;7.90;2.70;;;;;;;20.56;66.96;101410.16;5042753;28;20518;-83
2023/06/26 06:40:22;;;;;;;9.98;2.58;;;;;;;20.57;66.21;101407.44;5041164;28;20064;-83
2023/06/26 06:42:48;;;;;;;7.28;2.13;;;;;;;20.60;66.65;101404.56;5044135;28;20373;-84
2023/06/26 06:45:13;;;;;;;8.95;2.33;;;;;;;20.59;66.38;101404.69;5041775;28;20028;-84
2023/06/26 06:47:38;;;;;;;6.20;2.20;;;;;;;20.60;66.36;101409.03;5041236;28;20771;-86
2023/06/26 06:50:08;;;;;;;7.82;2.33;;;;;;;20.61;65.84;101414.22;5046108;28;20028;-85
2023/06/26 06:52:38;;;;;;;7.00;2.40;;;;;;;20.60;66.43;101411.66;5032539;28;20029;-84
2023/06/26 06:55:08;;;;;;;8.30;2.35;;;;;;;20.63;67.14;101437.94;5049177;28;20427;-85
2023/06/26 06:57:35;;;;;;;4.97;2.23;;;;;;;20.67;65.95;101434.16;5047530;28;20077;-85
2023/06/26 07:00:05;;;;;;;7.93;2.65;;;;;;;20.69;64.84;101424.34;5051308;28;20032;-84
2023/06/26 07:02:30;;;;;;;7.53;2.58;;;;;;;20.66;66.16;101437.75;5049460;28;20541;-85
2023/06/26 07:04:56;;;;;;;6.65;2.38;;;;;;;20.68;66.85;101430.56;5049730;28;20025;-84
2023/06/26 07:07:21;;;;;;;6.05;2.35;;;;;;;20.73;66.55;101433.78;5043653;28;20037;-88
2023/06/26 07:09:46;;;;;;;8.30;2.47;;;;;;;20.83;66.02;101449.16;5052869;28;20025;-86
2023/06/26 07:12:11;;;;;;;5.45;2.33;;;;;;;20.89;65.36;101454.94;5048529;28;20418;-83
2023/06/26 07:14:37;;;;;;;8.45;2.38;;;;;;;20.91;64.75;101454.81;5044613;28;20032;-84
2023/06/26 07:17:02;;;;;;;7.63;2.50;;;;;;;20.92;65.23;101461.81;5041986;28;20522;-85
2023/06/26 07:19:27;;;;;;;7.50;2.50;;;;;;;20.92;64.41;101462.66;5041657;28;20102;-85
2023/06/26 07:21:53;;;;;;;6.78;2.67;;;;;;;20.90;64.15;101453.13;5044638;28;20028;-86
2023/06/26 07:24:18;;;;;;;6.50;2.60;;;;;;;20.84;64.61;101457.00;5048200;28;20372;-86
2023/06/26 07:26:43;;;;;;;6.82;2.53;;;;;;;20.82;65.35;101458.03;5047348;28;20083;-85
2023/06/26 07:29:08;;;;;;;7.93;2.40;;;;;;;20.82;65.93;101460.69;5047170;28;20411;-86
2023/06/26 07:31:34;;;;;;;5.18;2.20;;;;;;;20.88;66.14;101478.81;5043798;28;20024;-85
2023/06/26 07:33:59;;;;;;;8.20;2.75;;;;;;;20.87;64.94;101480.63;5041694;28;20025;-85
2023/06/26 07:36:24;;;;;;;7.90;2.92;;;;;;;20.77;64.35;101477.66;5045395;28;20021;-85
2023/06/26 07:38:50;;;;;;;6.47;2.80;;;;;;;20.75;65.86;101479.53;5045485;28;20033;-85
2023/06/26 07:41:15;;;;;;;5.75;2.60;;;;;;;20.84;64.84;101485.22;5044742;28;20456;-86
2023/06/26 07:43:40;;;;;;;5.60;2.40;;;;;;;20.92;64.30;101493.56;5045077;28;20072;-85
2023/06/26 07:46:05;;;;;;;12.32;2.60;;;;;;;20.83;65.67;101481.72;5043627;28;20035;-85
2023/06/26 07:48:31;;;;;;;5.60;2.22;;;;;;;20.83;65.99;101502.06;5042986;28;20079;-86
2023/06/26 07:50:56;;;;;;;7.13;2.53;;;;;;;20.91;66.00;101494.50;5027747;28;20029;-85
2023/06/26 07:53:21;;;;;;;8.00;2.70;;;;;;;21.00;64.98;101488.69;5045865;28;20017;-85
2023/06/26 07:55:47;;;;;;;4.63;2.10;;;;;;;21.05;65.27;101486.59;5043380;28;20091;-85
2023/06/26 07:58:12;;;;;;;4.72;2.60;;;;;;;21.06;65.27;101490.09;5040425;28;20035;-84
2023/06/26 08:00:37;;;;;;;4.90;2.35;;;;;;;21.05;65.76;101502.47;5038344;28;20032;-83
2023/06/26 08:03:03;;;;;;;5.72;2.20;;;;;;;21.04;65.92;101502.56;5026948;28;20094;-84
2023/06/26 08:05:28;;;;;;;5.65;2.65;;;;;;;21.01;64.29;101508.88;5045749;28;20025;-84
2023/06/26 08:07:54;;;;;;;5.97;2.95;;;;;;;21.07;64.36;101505.88;5044665;28;20024;-84
2023/06/26 08:10:19;;;;;;;4.82;3.00;;;;;;;21.17;63.67;101505.34;5029560;28;20065;-84
2023/06/26 08:12:45;;;;;;;6.38;3.17;;;;;;;21.26;65.01;101504.75;5043128;28;20047;-85
2023/06/26 08:15:11;;;;;;;6.43;3.10;;;;;;;21.32;63.41;101506.19;5044333;28;20025;-84
2023/06/26 08:17:38;;;;;;;7.00;2.88;;;;;;;21.35;63.52;101509.47;5043606;28;20029;-87
2023/06/26 08:20:04;;;;;;;6.40;3.00;;;;;;;21.41;62.57;101520.66;5038610;28;20029;-86
2023/06/26 08:22:30;;;;;;;4.22;2.65;;;;;;;21.45;62.20;101524.81;5044858;28;20518;-85
2023/06/26 08:24:55;;;;;;;4.22;2.35;;;;;;;21.45;61.91;101516.88;5040015;28;20021;-83
2023/06/26 08:27:21;;;;;;;4.20;2.10;;;;;;;21.56;61.63;101527.66;5040196;28;20025;-83
2023/06/26 08:29:46;;;;;;;4.00;2.00;;;;;;;21.60;59.81;101526.56;5044251;28;20032;-83
2023/06/26 08:32:11;;;;;;;3.95;1.77;;;;;;;21.59;59.87;101521.34;5042942;28;20033;-86
2023/06/26 08:34:37;;;;;;;3.50;1.55;;;;;;;21.43;59.08;101537.28;5039751;28;20024;-83
2023/06/26 08:37:02;;;;;;;2.63;1.33;;;;;;;21.20;54.88;101536.88;5042279;28;20025;-85
2023/06/26 08:39:28;;;;;;;3.55;1.20;;;;;;;21.12;54.86;101534.69;5051873;28;20040;-83
2023/06/26 08:41:53;;;;;;;2.72;1.00;;;;;;;21.16;54.98;101535.38;5051436;28;20021;-84
2023/06/26 08:44:23;;;;;;;2.55;1.00;;;;;;;21.14;53.64;101542.56;5046905;28;20052;-82
2023/06/26 08:46:49;;;;;;;4.53;1.02;;;;;;;21.07;53.87;101540.25;5048940;28;20025;-82
2023/06/26 08:49:18;;;;;;;3.35;1.13;;;;;;;21.04;53.63;101544.88;5043347;28;20456;-84
2023/06/26 08:51:52;;;;;;;3.78;0.93;;;;;;;21.06;54.79;101540.38;5045994;28;20025;-82
2023/06/26 08:54:19;;;;;;;4.95;1.10;;;;;;;21.03;54.54;101549.31;5043563;28;20047;-82
2023/06/26 08:56:48;;;;;;;3.50;0.90;;;;;;;21.01;53.50;101553.84;5048391;28;20060;-83
2023/06/26 08:59:14;;;;;;;4.57;0.80;;;;;;;21.04;53.05;101556.31;5044109;28;20029;-83
2023/06/26 09:01:40;;;;;;;3.47;1.30;;;;;;;21.04;52.97;101564.25;5047724;28;20060;-82
2023/06/26 09:04:06;;;;;;;3.53;1.00;;;;;;;21.07;54.41;101574.66;5044294;28;20069;-83
2023/06/26 09:06:32;;;;;;;2.15;0.90;;;;;;;21.11;53.54;101562.09;5041066;28;20032;-82
2023/06/26 09:08:57;;;;;;;3.53;0.90;;;;;;;21.16;55.38;101553.91;5044605;28;20039;-83
2023/06/26 09:11:22;;;;;;;4.50;1.00;;;;;;;21.25;53.21;101563.94;5047292;28;20033;-83
2023/06/26 09:13:48;;;;;;;2.72;0.90;;;;;;;21.27;54.05;101564.69;5046831;28;20512;-84
2023/06/26 09:16:13;;;;;;;3.35;1.02;;;;;;;21.30;55.16;101571.59;5042502;28;20459;-83
2023/06/26 09:18:42;;;;;;;5.38;1.30;;;;;;;21.42;54.99;101567.34;5046015;28;20052;-83
2023/06/26 09:21:09;;;;;;;2.08;0.85;;;;;;;21.51;53.59;101567.66;5045099;28;20091;-83
2023/06/26 09:23:35;;;;;;;2.60;1.02;;;;;;;21.59;52.91;101572.47;5044297;28;20021;-82
2023/06/26 09:26:05;;;;;;;4.78;0.80;;;;;;;21.67;51.12;101583.50;5045196;28;20032;-83
2023/06/26 09:28:33;;;;;;;2.55;1.00;;;;;;;21.77;53.02;101588.22;5042374;28;20802;-82
2023/06/26 09:31:06;;;;;;;2.53;0.90;;;;;;;21.75;53.02;101568.91;5027647;28;20028;-82
2023/06/26 09:33:37;;;;;;;5.55;0.80;;;;;;;21.70;53.21;101571.00;5045970;28;20104;-83
2023/06/26 09:36:05;;;;;;;2.75;0.98;;;;;;;21.63;52.19;101579.34;5043424;28;20334;-82
2023/06/26 09:38:31;;;;;;;2.75;1.00;;;;;;;21.68;50.49;101585.22;5043249;28;20034;-82
2023/06/26 09:40:56;;;;;;;4.68;0.90;;;;;;;21.77;50.37;101585.56;5044134;28;20025;-82
2023/06/26 09:43:21;;;;;;;2.65;0.90;;;;;;;21.83;49.71;101593.16;5045649;28;20024;-82
2023/06/26 09:45:47;;;;;;;3.25;0.70;;;;;;;21.84;48.89;101594.84;5041304;28;20057;-81
2023/06/26 09:48:14;;;;;;;4.65;1.10;;;;;;;21.83;48.89;101601.94;5042200;28;20087;-81
2023/06/26 09:50:41;;;;;;;2.50;0.80;;;;;;;21.85;47.47;101607.16;5040242;28;20436;-81
2023/06/26 09:53:09;;;;;;;3.83;1.10;;;;;;;21.87;48.14;101621.13;5045633;28;20035;-81
2023/06/26 09:55:36;;;;;;;4.00;1.17;;;;;;;21.90;49.08;101623.59;5042143;28;20039;-81
2023/06/26 09:58:02;;;;;;;2.50;1.10;;;;;;;21.87;47.57;101637.03;5021586;28;20123;-81
2023/06/26 10:00:28;;;;;;;3.85;0.80;;;;;;;21.78;48.42;101629.66;5042007;28;20041;-81
2023/06/26 10:02:53;;;;;;;5.22;1.00;;;;;;;21.77;47.39;101620.00;5040119;28;20087;-81
2023/06/26 10:05:19;;;;;;;3.08;0.80;;;;;;;21.68;48.29;101619.63;5046826;28;20078;-81
2023/06/26 10:07:45;;;;;;;2.60;0.70;;;;;;;21.71;48.96;101621.22;5043067;28;20564;-84
2023/06/26 10:10:11;;;;;;;3.83;1.00;;;;;;;21.75;47.96;101611.28;5047816;28;20021;-83
2023/06/26 10:12:37;;;;;;;6.72;0.90;;;;;;;21.84;48.51;101621.34;5043435;28;20029;-83
2023/06/26 10:15:04;;;;;;;1.92;0.68;;;;;;;21.88;47.56;101625.50;5039809;28;20044;-82
2023/06/26 10:17:34;;;;;;;2.60;0.70;;;;;;;21.86;46.34;101630.06;5023817;28;20091;-83
2023/06/26 10:20:02;;;;;;;3.05;0.73;;;;;;;21.85;46.31;101628.34;5044768;28;20017;-83
2023/06/26 10:22:31;;;;;;;2.53;0.70;;;;;;;21.92;45.85;101619.06;5040493;28;20029;-82
2023/06/26 10:24:59;;;;;;;2.80;0.60;;;;;;;21.95;45.27;101640.06;5045057;28;20025;-84
2023/06/26 10:27:29;;;;;;;3.42;0.90;;;;;;;21.90;46.76;101630.72;5042824;28;20036;-83
2023/06/26 10:29:58;;;;;;;3.95;0.70;;;;;;;21.94;44.07;101643.66;5050942;28;20028;-86
2023/06/26 10:32:26;;;;;;;3.58;0.82;;;;;;;22.00;45.42;101636.28;5045469;28;20431;-83
2023/06/26 10:34:52;;;;;;;5.18;0.80;;;;;;;21.96;43.78;101646.22;5046960;28;20107;-82
2023/06/26 10:37:18;;;;;;;2.50;0.90;;;;;;;21.88;44.07;101633.44;5047326;28;20028;-83
2023/06/26 10:39:51;;;;;;;3.65;0.80;;;;;;;21.82;46.29;101631.19;5043677;28;20187;-83
2023/06/26 10:42:18;;;;;;;4.38;0.80;;;;;;;21.85;42.81;101646.03;5040285;28;20384;-82
2023/06/26 10:44:45;;;;;;;3.00;0.80;;;;;;;21.79;44.13;101645.44;5044461;28;20020;-82
2023/06/26 10:47:28;;;;;;;0.93;0.50;;;;;;;21.82;44.42;101647.06;5040044;28;20029;-81
2023/06/26 10:49:53;;;;;;;2.47;0.70;;;;;;;21.85;43.18;101649.53;5041633;28;20020;-81
2023/06/26 10:52:18;;;;;;;3.13;0.90;;;;;;;21.90;43.15;101651.91;5044375;28;20033;-81
2023/06/26 10:54:44;;;;;;;4.82;0.80;;;;;;;21.92;41.13;101650.84;5023136;28;20083;-81
2023/06/26 10:57:10;;;;;;;6.07;0.80;;;;;;;22.04;41.44;101658.97;5043845;28;20049;-81
2023/06/26 10:59:40;;;;;;;2.05;0.70;;;;;;;22.10;43.66;101663.91;5046964;28;20523;-82
2023/06/26 11:02:06;;;;;;;2.30;0.80;;;;;;;22.15;43.09;101651.25;5041848;28;20499;-82
2023/06/26 11:04:39;;;;;;;4.28;0.90;;;;;;;22.13;43.54;101647.84;5043861;28;20033;-81
2023/06/26 11:07:18;;;;;;;2.28;0.80;;;;;;;22.05;43.21;101647.44;5041969;28;20021;-81
2023/06/26 11:09:57;;;;;;;3.00;0.70;;;;;;;22.00;43.13;101674.22;5045128;28;20461;-81
2023/06/26 11:12:43;;;;;;;1.30;0.70;;;;;;;21.93;42.64;101675.56;5047670;28;20033;-81
2023/06/26 11:15:09;;;;;;;4.07;0.90;;;;;;;21.93;43.46;101673.75;5042428;28;20021;-81
2023/06/26 11:17:36;;;;;;;2.20;0.70;;;;;;;22.01;42.22;101672.44;5042333;28;20040;-82
2023/06/26 11:20:04;;;;;;;1.88;0.63;;;;;;;22.03;42.83;101684.66;5040298;28;20021;-82